Time;durP1;ratioP1;P1;durP2;ratioP2;P2;SDS_P1;SDS_P2;PMS_P1;PMS_P2;Temp;Humidity;BMP_temperature;BMP_pressure;BME280_temperature;BME280_humidity;BME280_pressure;Samples;Min_cycle;Max_cycle;Signal;HPM_P1;HPM_P2
2022/06/07 00:02:11;;;;;;;1.85;1.25;;;17.70;91.40;;;;;;4995829;28;20402;-76
2022/06/07 00:04:38;;;;;;;1.20;1.10;;;17.70;91.60;;;;;;4995494;28;20022;-77
2022/06/07 00:07:04;;;;;;;1.90;1.25;;;17.70;91.70;;;;;;4978501;28;20495;-77
2022/06/07 00:09:30;;;;;;;1.90;1.00;;;17.70;91.70;;;;;;4975336;28;20019;-77
2022/06/07 00:11:56;;;;;;;1.63;1.02;;;17.60;91.70;;;;;;4967272;28;20399;-77
2022/06/07 00:14:21;;;;;;;1.40;1.10;;;17.70;91.80;;;;;;4977334;28;20384;-76
2022/06/07 00:16:47;;;;;;;2.22;1.23;;;17.60;91.80;;;;;;4977863;28;20133;-77
2022/06/07 00:19:12;;;;;;;2.10;1.20;;;17.60;91.90;;;;;;4995538;28;20042;-76
2022/06/07 00:21:38;;;;;;;2.20;1.13;;;17.60;91.90;;;;;;4977883;28;20503;-76
2022/06/07 00:24:04;;;;;;;1.77;1.30;;;17.60;91.90;;;;;;4974001;28;20034;-76
2022/06/07 00:26:31;;;;;;;2.20;1.20;;;17.60;91.90;;;;;;4962259;28;20033;-76
2022/06/07 00:28:59;;;;;;;1.67;1.10;;;17.60;91.90;;;;;;4977556;28;20041;-77
2022/06/07 00:31:26;;;;;;;2.25;1.27;;;17.60;91.90;;;;;;4977476;28;20026;-77
2022/06/07 00:33:51;;;;;;;1.83;1.20;;;17.60;92.00;;;;;;4993482;28;20033;-76
2022/06/07 00:36:17;;;;;;;1.67;1.08;;;17.60;91.90;;;;;;4994575;28;20026;-76
2022/06/07 00:38:43;;;;;;;2.05;1.10;;;17.60;91.90;;;;;;4994625;28;20466;-76
2022/06/07 00:41:09;;;;;;;1.58;1.00;;;17.60;92.00;;;;;;4977246;28;20495;-76
2022/06/07 00:43:36;;;;;;;1.45;1.13;;;17.60;91.90;;;;;;4994812;28;20042;-76
2022/06/07 00:46:06;;;;;;;2.38;1.00;;;17.60;91.80;;;;;;4994740;28;20030;-76
2022/06/07 00:48:32;;;;;;;1.17;1.02;;;17.70;91.30;;;;;;4977341;28;20058;-78
2022/06/07 00:51:03;;;;;;;1.40;1.00;;;17.60;91.60;;;;;;4977548;28;20061;-76
2022/06/07 00:53:32;;;;;;;1.42;1.00;;;17.70;91.60;;;;;;4994404;28;20038;-76
2022/06/07 00:55:58;;;;;;;1.83;1.10;;;17.70;91.50;;;;;;5009338;28;20092;-76
2022/06/07 00:58:26;;;;;;;1.60;1.10;;;17.70;91.40;;;;;;4976647;28;20018;-76
2022/06/07 01:00:53;;;;;;;1.85;1.10;;;17.70;91.30;;;;;;4994615;28;20052;-76
2022/06/07 01:03:20;;;;;;;1.70;1.13;;;17.70;91.40;;;;;;4976289;28;20026;-76
2022/06/07 01:05:50;;;;;;;1.50;1.00;;;17.70;91.50;;;;;;4977149;28;20026;-76
2022/06/07 01:11:00;;;;;;;1.50;1.10;;;17.60;91.70;;;;;;4990533;28;20076;-76
2022/06/07 01:13:32;;;;;;;2.45;1.10;;;17.60;91.80;;;;;;4994254;28;20110;-76
2022/06/07 01:16:04;;;;;;;2.30;1.20;;;17.60;91.80;;;;;;4973699;28;20161;-76
2022/06/07 01:18:31;;;;;;;1.88;1.20;;;17.60;91.90;;;;;;4970827;28;20027;-75
2022/06/07 01:21:14;;;;;;;2.30;1.20;;;17.60;91.50;;;;;;5006719;28;20028;-76
2022/06/07 01:23:40;;;;;;;1.98;1.30;;;17.60;91.70;;;;;;4994066;28;20518;-76
2022/06/07 01:26:06;;;;;;;2.45;1.38;;;17.60;91.90;;;;;;4976533;28;20030;-76
2022/06/07 01:28:31;;;;;;;1.83;1.00;;;17.60;91.90;;;;;;4976552;28;20030;-77
2022/06/07 01:30:57;;;;;;;2.20;1.05;;;17.50;91.90;;;;;;4976479;28;20037;-76
2022/06/07 01:33:22;;;;;;;1.60;1.20;;;17.60;91.90;;;;;;4972910;28;20113;-76
2022/06/07 01:35:49;;;;;;;1.55;0.98;;;17.60;91.90;;;;;;4976239;28;20034;-76
2022/06/07 01:38:14;;;;;;;1.35;0.98;;;17.60;91.90;;;;;;4976496;28;20448;-78
2022/06/07 01:43:24;;;;;;;2.22;1.08;;;17.60;92.00;;;;;;4993487;28;20100;-77
2022/06/07 01:45:49;;;;;;;1.92;1.10;;;17.60;91.90;;;;;;4992680;28;20065;-76
2022/06/07 01:48:15;;;;;;;1.15;0.90;;;17.60;91.50;;;;;;4993584;28;20099;-76
2022/06/07 01:50:40;;;;;;;1.67;1.10;;;17.60;91.60;;;;;;4993742;28;20019;-76
2022/06/07 01:53:06;;;;;;;1.80;1.17;;;17.70;91.60;;;;;;4975885;28;20053;-76
2022/06/07 01:55:31;;;;;;;1.55;1.00;;;17.70;91.50;;;;;;4972443;28;20026;-77
2022/06/07 01:57:57;;;;;;;2.00;1.20;;;17.70;91.50;;;;;;4975724;28;20030;-77
2022/06/07 02:00:22;;;;;;;1.95;1.30;;;17.70;91.40;;;;;;4993292;28;20037;-76
2022/06/07 02:02:48;;;;;;;2.50;1.38;;;17.70;91.30;;;;;;4975921;28;20034;-76
2022/06/07 02:05:15;;;;;;;4.13;1.80;;;17.60;91.30;;;;;;4975542;28;20026;-75
2022/06/07 02:07:40;;;;;;;3.03;1.60;;;17.60;91.60;;;;;;4992248;28;20026;-76
2022/06/07 02:10:07;;;;;;;1.75;1.10;;;17.60;91.40;;;;;;4975511;28;20048;-75
2022/06/07 02:12:33;;;;;;;1.80;1.20;;;17.60;91.90;;;;;;4968974;28;20023;-76
2022/06/07 02:15:00;;;;;;;1.27;1.00;;;17.60;91.70;;;;;;4991785;28;20034;-76
2022/06/07 02:17:26;;;;;;;1.70;1.00;;;17.60;91.80;;;;;;4993147;28;20068;-76
2022/06/07 02:19:52;;;;;;;1.85;1.20;;;17.60;91.80;;;;;;4972373;28;20427;-76
2022/06/07 02:22:17;;;;;;;2.85;1.30;;;17.60;91.80;;;;;;4978529;28;20038;-76
2022/06/07 02:24:43;;;;;;;1.77;1.20;;;17.50;91.80;;;;;;4975194;28;20010;-76
2022/06/07 02:27:14;;;;;;;1.65;1.10;;;17.60;91.90;;;;;;4992846;28;20511;-76
2022/06/07 02:29:44;;;;;;;1.63;1.20;;;17.60;91.90;;;;;;4975290;28;20026;-76
2022/06/07 02:32:15;;;;;;;1.27;1.07;;;17.50;91.90;;;;;;4975473;28;20019;-77
2022/06/07 02:34:45;;;;;;;2.28;1.20;;;17.50;91.80;;;;;;4975267;28;20023;-76
2022/06/07 02:37:11;;;;;;;2.08;1.25;;;17.60;92.20;;;;;;4971890;28;20595;-76
2022/06/07 02:39:38;;;;;;;1.65;1.08;;;17.60;91.90;;;;;;4974978;28;20080;-76
2022/06/07 02:42:06;;;;;;;1.70;1.20;;;17.60;91.90;;;;;;4992860;28;20023;-76
2022/06/07 02:44:32;;;;;;;2.10;1.20;;;17.60;91.90;;;;;;4992598;28;20025;-76
2022/06/07 02:46:57;;;;;;;3.08;1.80;;;17.60;91.90;;;;;;4992542;28;20031;-76
2022/06/07 02:49:23;;;;;;;1.92;1.30;;;17.60;91.40;;;;;;4992861;28;20030;-76
2022/06/07 02:51:48;;;;;;;2.30;1.35;;;17.60;91.40;;;;;;4975275;28;20114;-76
2022/06/07 02:54:14;;;;;;;2.08;1.27;;;17.60;91.60;;;;;;4992209;28;20483;-77
2022/06/07 02:56:39;;;;;;;3.00;1.50;;;17.60;91.40;;;;;;4974820;28;20097;-76
2022/06/07 02:59:05;;;;;;;2.42;1.50;;;17.60;91.50;;;;;;4992150;28;20053;-76
2022/06/07 03:01:31;;;;;;;2.53;1.60;;;17.70;91.30;;;;;;4974442;28;20555;-76
2022/06/07 03:03:58;;;;;;;2.60;1.30;;;17.60;91.30;;;;;;4974859;28;20080;-77
2022/06/07 03:06:24;;;;;;;3.30;1.80;;;17.60;91.40;;;;;;4974839;28;20507;-76
2022/06/07 03:08:50;;;;;;;3.67;2.15;;;17.60;91.40;;;;;;4971526;28;20057;-76
2022/06/07 03:11:16;;;;;;;2.67;1.60;;;17.60;91.50;;;;;;4966710;28;20050;-77
2022/06/07 03:13:41;;;;;;;2.20;1.40;;;17.60;91.50;;;;;;4980307;28;20030;-73
2022/06/07 03:16:07;;;;;;;1.95;1.23;;;17.60;91.70;;;;;;4970441;28;20065;-75
2022/06/07 03:18:32;;;;;;;1.70;1.20;;;17.60;91.80;;;;;;4962352;28;20048;-76
2022/06/07 03:20:58;;;;;;;1.95;1.30;;;17.50;91.80;;;;;;4981290;28;20043;-77
2022/06/07 03:23:24;;;;;;;4.20;2.15;;;17.60;91.80;;;;;;4974181;28;20030;-76
2022/06/07 03:25:49;;;;;;;2.63;1.50;;;17.50;91.60;;;;;;4976415;28;20030;-76
2022/06/07 03:28:15;;;;;;;2.10;1.33;;;17.50;91.80;;;;;;4996506;28;20041;-78
2022/06/07 03:30:42;;;;;;;1.75;1.20;;;17.60;91.80;;;;;;4995655;28;20030;-76
2022/06/07 03:33:13;;;;;;;2.33;1.30;;;17.60;91.90;;;;;;4976986;28;20515;-76
2022/06/07 03:35:39;;;;;;;2.20;1.30;;;17.50;91.90;;;;;;4979496;28;20034;-78
2022/06/07 03:38:04;;;;;;;2.55;1.65;;;17.50;91.70;;;;;;4995920;28;20034;-77
2022/06/07 03:40:45;;;;;;;2.10;1.40;;;17.50;91.60;;;;;;4976861;28;20484;-76
2022/06/07 03:43:17;;;;;;;2.28;1.30;;;17.60;91.50;;;;;;4976209;28;20030;-77
2022/06/07 03:45:43;;;;;;;2.30;1.45;;;17.60;91.90;;;;;;4958088;28;20546;-76
2022/06/07 03:48:08;;;;;;;2.40;1.40;;;17.50;91.70;;;;;;4976664;28;20039;-76
2022/06/07 03:50:35;;;;;;;2.30;1.60;;;17.60;91.60;;;;;;4959013;28;20463;-75
2022/06/07 03:53:00;;;;;;;2.58;1.52;;;17.60;91.50;;;;;;4975458;28;20392;-77
2022/06/07 03:55:26;;;;;;;2.63;1.60;;;17.60;91.60;;;;;;4976304;28;20030;-77
2022/06/07 03:57:51;;;;;;;2.25;1.50;;;17.70;91.40;;;;;;4958901;28;20035;-75
2022/06/07 04:00:17;;;;;;;2.25;1.40;;;17.70;91.30;;;;;;4958536;28;20062;-76
2022/06/07 04:02:43;;;;;;;3.63;1.60;;;17.60;91.20;;;;;;4975324;28;20559;-76
2022/06/07 04:05:08;;;;;;;2.95;1.70;;;17.70;91.40;;;;;;4958488;28;20130;-75
2022/06/07 04:10:18;;;;;;;2.22;1.48;;;17.60;91.30;;;;;;4975852;28;20114;-76
2022/06/07 04:12:43;;;;;;;3.08;1.60;;;17.60;91.40;;;;;;4957749;28;20122;-76
2022/06/07 04:15:09;;;;;;;1.95;1.33;;;17.60;91.50;;;;;;4975519;28;20038;-75
2022/06/07 04:17:35;;;;;;;3.70;1.80;;;17.60;91.50;;;;;;4975705;28;20415;-75
2022/06/07 04:20:00;;;;;;;3.00;1.83;;;17.60;91.40;;;;;;4958304;28;20085;-75
2022/06/07 04:22:26;;;;;;;3.00;1.83;;;17.60;91.20;;;;;;4975591;28;20389;-76
2022/06/07 04:24:51;;;;;;;3.90;2.20;;;17.50;91.30;;;;;;4975349;28;20041;-75
2022/06/07 04:27:17;;;;;;;2.92;1.70;;;17.60;91.10;;;;;;4975844;28;20022;-75
2022/06/07 04:29:42;;;;;;;4.15;1.80;;;17.50;91.20;;;;;;4975600;28;20050;-75
2022/06/07 04:32:08;;;;;;;3.15;1.80;;;17.50;91.30;;;;;;4975021;28;20031;-75
2022/06/07 04:34:34;;;;;;;3.35;1.77;;;17.60;91.50;;;;;;4989844;28;20030;-75
2022/06/07 04:36:59;;;;;;;4.72;2.00;;;17.50;91.30;;;;;;4972232;28;20395;-75
2022/06/07 04:39:25;;;;;;;3.38;1.65;;;17.60;91.30;;;;;;4957653;28;20113;-76
2022/06/07 04:41:50;;;;;;;3.25;1.50;;;17.50;91.40;;;;;;4975209;28;20655;-75
2022/06/07 04:44:16;;;;;;;3.63;1.83;;;17.50;91.40;;;;;;4974565;28;20074;-76
2022/06/07 04:46:41;;;;;;;2.30;1.60;;;17.50;91.10;;;;;;4957783;28;20510;-76
2022/06/07 04:49:07;;;;;;;4.07;1.92;;;17.60;91.10;;;;;;4957677;28;20019;-76
2022/06/07 04:51:36;;;;;;;5.35;1.90;;;17.60;90.80;;;;;;4990529;28;20022;-76
2022/06/07 04:54:03;;;;;;;3.03;1.60;;;17.60;90.90;;;;;;4957640;28;20059;-76
2022/06/07 04:56:34;;;;;;;3.65;1.60;;;17.60;90.90;;;;;;4957963;28;20047;-76
2022/06/07 04:59:01;;;;;;;2.70;1.58;;;17.70;90.90;;;;;;4957885;28;20105;-77
2022/06/07 05:01:33;;;;;;;4.53;1.80;;;17.60;90.90;;;;;;4973943;28;20053;-77
2022/06/07 05:03:59;;;;;;;3.92;1.95;;;17.70;90.80;;;;;;4956536;28;20033;-76
2022/06/07 05:06:26;;;;;;;3.45;1.80;;;17.60;90.80;;;;;;4956702;28;20423;-76
2022/06/07 05:08:55;;;;;;;3.83;1.70;;;17.70;90.70;;;;;;4973586;28;20023;-76
2022/06/07 05:11:21;;;;;;;3.25;1.90;;;17.60;90.80;;;;;;4969984;28;20037;-76
2022/06/07 05:13:46;;;;;;;3.00;2.00;;;17.60;91.00;;;;;;4957548;28;20019;-76
2022/06/07 05:16:12;;;;;;;2.97;1.70;;;17.60;91.10;;;;;;4974524;28;20050;-76
2022/06/07 05:18:38;;;;;;;5.00;1.75;;;17.60;91.10;;;;;;4957710;28;20081;-76
2022/06/07 05:21:05;;;;;;;2.78;1.60;;;17.60;91.20;;;;;;4973741;28;20027;-75
2022/06/07 05:23:31;;;;;;;3.05;1.70;;;17.60;91.10;;;;;;4937294;28;20042;-75
2022/06/07 05:26:01;;;;;;;2.90;1.70;;;17.60;91.20;;;;;;4987883;28;20027;-75
2022/06/07 05:28:27;;;;;;;3.15;1.70;;;17.60;91.30;;;;;;4956756;28;20037;-75
2022/06/07 05:30:52;;;;;;;4.70;1.80;;;17.60;91.30;;;;;;4989569;28;20062;-75
2022/06/07 05:33:18;;;;;;;3.38;1.77;;;17.60;91.30;;;;;;4956581;28;20026;-75
2022/06/07 05:35:43;;;;;;;2.80;1.60;;;17.60;91.30;;;;;;4974371;28;20682;-75
2022/06/07 05:38:11;;;;;;;2.65;1.67;;;17.60;91.40;;;;;;4974155;28;20069;-75
2022/06/07 05:40:37;;;;;;;2.85;1.60;;;17.60;91.30;;;;;;4957100;28;20492;-76
2022/06/07 05:43:03;;;;;;;2.80;1.70;;;17.60;91.20;;;;;;4956603;28;20035;-76
2022/06/07 05:45:30;;;;;;;2.40;1.50;;;17.60;91.40;;;;;;4956916;28;20034;-75
2022/06/07 05:47:56;;;;;;;1.88;1.45;;;17.60;91.30;;;;;;4974113;28;20050;-75
2022/06/07 05:50:21;;;;;;;3.10;1.60;;;17.60;91.20;;;;;;4956841;28;20051;-75
2022/06/07 05:52:47;;;;;;;2.22;1.52;;;17.60;91.20;;;;;;4956783;28;20030;-75
2022/06/07 05:55:12;;;;;;;2.75;1.70;;;17.70;91.00;;;;;;4956471;28;20086;-75
2022/06/07 05:57:38;;;;;;;4.30;1.60;;;17.70;90.60;;;;;;4956763;28;20026;-76
2022/06/07 06:00:04;;;;;;;3.15;1.60;;;17.70;90.70;;;;;;4956644;28;20031;-76
2022/06/07 06:02:30;;;;;;;3.13;1.70;;;17.70;90.50;;;;;;4956818;28;20023;-76
2022/06/07 06:04:55;;;;;;;2.92;1.80;;;17.70;90.50;;;;;;4956371;28;20026;-75
2022/06/07 06:07:21;;;;;;;3.20;1.85;;;17.70;90.80;;;;;;4973908;28;20023;-75
2022/06/07 06:12:31;;;;;;;3.15;1.80;;;17.80;90.90;;;;;;4976035;28;20109;-76
2022/06/07 06:14:57;;;;;;;2.63;1.70;;;17.70;90.80;;;;;;4974109;28;20026;-76
2022/06/07 06:17:23;;;;;;;2.88;1.65;;;17.80;90.80;;;;;;4974290;28;20019;-75
2022/06/07 06:19:48;;;;;;;3.15;1.50;;;17.70;90.80;;;;;;4957124;28;20066;-75
2022/06/07 06:22:14;;;;;;;2.65;1.52;;;17.70;91.00;;;;;;4973919;28;20027;-73
2022/06/07 06:24:40;;;;;;;2.78;1.60;;;17.70;91.00;;;;;;4956009;28;20019;-75
2022/06/07 06:27:06;;;;;;;4.65;1.90;;;17.70;91.00;;;;;;4973738;28;20031;-77
2022/06/07 06:29:32;;;;;;;3.47;1.80;;;17.70;90.80;;;;;;4956905;28;20022;-76
2022/06/07 06:31:57;;;;;;;2.38;1.60;;;17.70;90.80;;;;;;4955786;28;20100;-74
2022/06/07 06:34:23;;;;;;;2.30;1.60;;;17.70;91.00;;;;;;4955696;28;20030;-72
2022/06/07 06:36:49;;;;;;;4.07;1.85;;;17.70;90.90;;;;;;4956498;28;20034;-77
2022/06/07 06:39:15;;;;;;;2.95;1.80;;;17.70;90.90;;;;;;4973920;28;20074;-77
2022/06/07 06:41:43;;;;;;;3.15;1.63;;;17.70;90.90;;;;;;4974036;28;20038;-76
2022/06/07 06:44:10;;;;;;;2.47;1.50;;;17.60;90.90;;;;;;4955713;28;20061;-72
2022/06/07 06:46:39;;;;;;;2.92;1.60;;;17.60;90.70;;;;;;4955571;28;20023;-72
2022/06/07 06:49:05;;;;;;;2.55;1.50;;;17.60;91.00;;;;;;4956176;28;20403;-76
2022/06/07 06:51:32;;;;;;;2.45;1.55;;;17.70;90.90;;;;;;4956590;28;20463;-76
2022/06/07 06:53:59;;;;;;;3.00;1.75;;;17.70;90.30;;;;;;4972710;28;20027;-73
2022/06/07 06:56:26;;;;;;;3.65;1.65;;;17.80;90.60;;;;;;4988071;28;20125;-72
2022/06/07 06:58:52;;;;;;;4.05;1.60;;;17.80;90.60;;;;;;4956207;28;20165;-76
2022/06/07 07:01:27;;;;;;;2.67;1.60;;;17.80;90.50;;;;;;4955520;28;20037;-78
2022/06/07 07:03:53;;;;;;;2.22;1.50;;;17.80;90.50;;;;;;4973069;28;20030;-76
2022/06/07 07:06:20;;;;;;;2.67;1.45;;;17.80;90.50;;;;;;4956189;28;20381;-77
2022/06/07 07:08:47;;;;;;;2.55;1.60;;;17.80;90.70;;;;;;4973065;28;20055;-73
2022/06/07 07:11:26;;;;;;;2.40;1.50;;;17.80;90.60;;;;;;4956065;28;20030;-77
2022/06/07 07:13:53;;;;;;;2.50;1.50;;;17.80;90.60;;;;;;4955916;28;20550;-77
2022/06/07 07:16:31;;;;;;;3.58;1.73;;;17.80;90.80;;;;;;4973307;28;20041;-78
2022/06/07 07:18:58;;;;;;;2.53;1.50;;;17.70;90.70;;;;;;4956006;28;20078;-77
2022/06/07 07:21:27;;;;;;;4.07;1.60;;;17.80;90.90;;;;;;4987977;28;20030;-73
2022/06/07 07:23:53;;;;;;;2.10;1.48;;;17.80;90.60;;;;;;4955768;28;20117;-76
2022/06/07 07:26:25;;;;;;;2.95;1.73;;;17.70;90.90;;;;;;4955656;28;20117;-72
2022/06/07 07:28:52;;;;;;;2.70;1.50;;;17.80;90.90;;;;;;4955962;28;20050;-77
2022/06/07 07:31:22;;;;;;;2.53;1.50;;;17.80;90.90;;;;;;4956065;28;20033;-77
2022/06/07 07:33:48;;;;;;;2.15;1.60;;;17.80;90.90;;;;;;4955818;28;20033;-76
2022/06/07 07:36:14;;;;;;;2.63;1.60;;;17.80;91.00;;;;;;4955857;28;20117;-76
2022/06/07 07:38:41;;;;;;;2.28;1.50;;;17.80;90.90;;;;;;4956135;28;20130;-76
2022/06/07 07:41:28;;;;;;;2.25;1.58;;;17.80;90.90;;;;;;4956069;28;20528;-76
2022/06/07 07:43:55;;;;;;;3.58;1.70;;;17.80;90.80;;;;;;4955409;28;20034;-76
2022/06/07 07:46:23;;;;;;;3.17;1.60;;;17.80;90.80;;;;;;4955623;28;20423;-74
2022/06/07 07:48:49;;;;;;;2.78;1.63;;;17.80;90.90;;;;;;4971818;28;20111;-76
2022/06/07 07:51:33;;;;;;;2.50;1.45;;;17.80;90.80;;;;;;4955863;28;20039;-75
2022/06/07 07:54:00;;;;;;;2.75;1.52;;;17.90;90.70;;;;;;4954987;28;20031;-72
2022/06/07 07:56:27;;;;;;;2.67;1.60;;;17.90;90.60;;;;;;4955246;28;20034;-73
2022/06/07 07:58:54;;;;;;;2.83;1.67;;;17.90;90.10;;;;;;4955397;28;20492;-76
2022/06/07 08:01:22;;;;;;;2.17;1.60;;;18.00;90.30;;;;;;4973148;28;20519;-77
2022/06/07 08:03:49;;;;;;;3.25;1.58;;;18.00;90.30;;;;;;4972477;28;20026;-74
2022/06/07 08:06:17;;;;;;;2.10;1.50;;;18.00;90.30;;;;;;4954944;28;20030;-73
2022/06/07 08:08:44;;;;;;;2.55;1.50;;;18.00;90.40;;;;;;4955509;28;20023;-74
2022/06/07 08:11:10;;;;;;;2.95;1.60;;;17.90;90.50;;;;;;4955272;28;20515;-76
2022/06/07 08:13:36;;;;;;;2.55;1.60;;;17.90;90.50;;;;;;4959024;28;20023;-76
2022/06/07 08:16:04;;;;;;;2.08;1.35;;;17.90;90.60;;;;;;4976669;28;20650;-77
2022/06/07 08:18:30;;;;;;;3.08;1.80;;;17.90;90.60;;;;;;4959285;28;20030;-76
2022/06/07 08:21:01;;;;;;;3.00;1.60;;;17.90;90.60;;;;;;4975719;28;20031;-73
2022/06/07 08:23:28;;;;;;;2.33;1.60;;;17.90;90.60;;;;;;4958795;28;20031;-77
2022/06/07 08:25:55;;;;;;;3.03;1.60;;;18.00;90.60;;;;;;4958882;28;20027;-77
2022/06/07 08:28:20;;;;;;;2.10;1.38;;;17.90;90.60;;;;;;4975946;28;20023;-78
2022/06/07 08:30:48;;;;;;;2.90;1.48;;;17.90;90.60;;;;;;4958832;28;20114;-75
2022/06/07 08:38:44;;;;;;;2.00;1.40;;;17.90;90.80;;;;;;4976513;28;20556;-76
2022/06/07 08:41:25;;;;;;;2.28;1.50;;;17.90;90.90;;;;;;4975621;28;20023;-73
2022/06/07 08:43:51;;;;;;;1.88;1.30;;;17.80;90.90;;;;;;4975261;28;20109;-73
2022/06/07 08:46:20;;;;;;;2.33;1.58;;;17.80;91.00;;;;;;4975643;28;20035;-76
2022/06/07 08:48:46;;;;;;;2.03;1.40;;;17.80;91.00;;;;;;4958530;28;20117;-76
2022/06/07 08:51:29;;;;;;;2.22;1.40;;;17.90;90.90;;;;;;4975828;28;20456;-77
2022/06/07 08:53:58;;;;;;;2.55;1.60;;;17.90;90.80;;;;;;4957928;28;20126;-77
2022/06/07 08:56:32;;;;;;;2.28;1.40;;;18.00;90.70;;;;;;4975893;28;20110;-76
2022/06/07 08:59:09;;;;;;;3.25;1.60;;;18.10;90.50;;;;;;4958185;28;20093;-76
2022/06/07 09:02:19;;;;;;;3.15;1.60;;;18.10;90.40;;;;;;4975767;28;20027;-76
2022/06/07 09:04:45;;;;;;;2.63;1.45;;;18.10;90.30;;;;;;4958077;28;20054;-76
2022/06/07 09:07:19;;;;;;;2.88;1.60;;;18.10;90.20;;;;;;4958250;28;20101;-76
2022/06/07 09:12:35;;;;;;;2.90;1.63;;;18.10;90.30;;;;;;4975902;28;20034;-77
2022/06/07 09:15:19;;;;;;;1.63;1.27;;;18.10;90.40;;;;;;4975568;28;20102;-76
2022/06/07 09:17:52;;;;;;;2.53;1.50;;;18.00;90.50;;;;;;4975135;28;20045;-76
2022/06/07 09:20:27;;;;;;;2.05;1.30;;;18.00;90.50;;;;;;4975517;28;20093;-77
2022/06/07 09:23:00;;;;;;;2.67;1.45;;;18.00;90.60;;;;;;4957349;28;20023;-76
2022/06/07 09:25:42;;;;;;;2.47;1.63;;;18.00;90.60;;;;;;4957861;28;20058;-76
2022/06/07 09:28:15;;;;;;;2.83;1.50;;;18.00;90.70;;;;;;4957918;28;20074;-75
2022/06/07 09:30:44;;;;;;;2.13;1.40;;;18.00;90.70;;;;;;4957843;28;20027;-76
2022/06/07 09:33:21;;;;;;;2.15;1.40;;;17.90;90.70;;;;;;4957646;28;20030;-76
2022/06/07 09:35:48;;;;;;;2.53;1.60;;;17.90;90.80;;;;;;4957778;28;20118;-76
2022/06/07 09:38:17;;;;;;;2.88;1.63;;;17.90;90.80;;;;;;4990141;28;20420;-76
2022/06/07 09:40:47;;;;;;;2.88;1.60;;;17.90;90.80;;;;;;4957631;28;20401;-77
2022/06/07 09:43:13;;;;;;;2.55;1.60;;;17.90;90.80;;;;;;4974675;28;20109;-76
2022/06/07 09:45:51;;;;;;;2.90;1.50;;;17.90;90.90;;;;;;4974801;28;20110;-76
2022/06/07 09:48:35;;;;;;;3.42;1.70;;;17.90;90.90;;;;;;4957683;28;20077;-76
2022/06/07 09:51:06;;;;;;;2.40;1.50;;;17.90;90.90;;;;;;4957292;28;20023;-76
2022/06/07 09:53:55;;;;;;;2.47;1.50;;;17.90;90.80;;;;;;4974282;28;20023;-77
2022/06/07 09:56:40;;;;;;;2.72;1.48;;;18.00;90.80;;;;;;4962421;28;20121;-77
2022/06/07 09:59:40;;;;;;;2.78;1.60;;;18.00;90.70;;;;;;4989267;28;20391;-73
2022/06/07 10:02:23;;;;;;;2.35;1.45;;;18.00;90.50;;;;;;4973385;28;20085;-73
2022/06/07 10:05:16;;;;;;;3.00;1.70;;;18.10;90.40;;;;;;4957022;28;20244;-77
2022/06/07 10:08:10;;;;;;;2.80;1.80;;;18.10;90.40;;;;;;4974925;28;20023;-76
2022/06/07 10:10:39;;;;;;;3.22;1.70;;;18.10;90.40;;;;;;4974391;28;20023;-76
2022/06/07 10:13:19;;;;;;;2.97;1.67;;;18.10;90.50;;;;;;4956895;28;20030;-78
2022/06/07 10:15:56;;;;;;;2.70;1.77;;;18.10;90.50;;;;;;4974466;28;20380;-77
2022/06/07 10:18:39;;;;;;;2.95;1.70;;;18.00;90.60;;;;;;4957004;28;20613;-76
2022/06/07 10:21:25;;;;;;;2.33;1.60;;;18.00;90.60;;;;;;4957143;28;20031;-76
2022/06/07 10:24:19;;;;;;;2.83;1.77;;;18.00;90.60;;;;;;4973779;28;20030;-77
2022/06/07 10:27:18;;;;;;;2.58;1.80;;;18.00;90.60;;;;;;4956825;28;20026;-76
2022/06/07 10:30:07;;;;;;;2.63;1.70;;;18.00;90.60;;;;;;4956834;28;20015;-76
2022/06/07 10:32:49;;;;;;;2.15;1.60;;;18.00;90.70;;;;;;4956728;28;20500;-76
2022/06/07 10:35:50;;;;;;;2.75;1.45;;;18.00;90.70;;;;;;4973120;28;20484;-77
2022/06/07 10:38:35;;;;;;;4.40;1.85;;;18.00;90.70;;;;;;4956859;28;20117;-76
2022/06/07 10:41:28;;;;;;;3.70;1.92;;;18.00;90.70;;;;;;4956670;28;20491;-76
2022/06/07 10:44:05;;;;;;;2.85;1.80;;;18.00;90.70;;;;;;4965094;28;20519;-76
2022/06/07 10:46:36;;;;;;;3.35;2.00;;;18.00;90.70;;;;;;4956559;28;20030;-77
2022/06/07 10:49:25;;;;;;;3.90;1.77;;;18.00;90.70;;;;;;4973826;28;20034;-76
2022/06/07 10:55:08;;;;;;;2.75;1.52;;;18.00;90.70;;;;;;4973692;28;20038;-76
2022/06/07 10:57:52;;;;;;;3.13;1.63;;;18.00;90.70;;;;;;4937062;28;20077;-76
2022/06/07 11:00:36;;;;;;;2.45;1.70;;;18.00;90.60;;;;;;4973959;28;20044;-73
2022/06/07 11:03:31;;;;;;;2.75;1.60;;;18.00;90.50;;;;;;4987587;28;20039;-76
2022/06/07 11:09:29;;;;;;;2.22;1.60;;;18.10;90.50;;;;;;4972960;28;20441;-74
2022/06/07 11:12:02;;;;;;;2.67;1.73;;;18.00;90.50;;;;;;4972859;28;20031;-72
2022/06/07 11:14:56;;;;;;;3.10;1.85;;;18.00;90.60;;;;;;4972398;28;20595;-73
2022/06/07 11:17:30;;;;;;;3.03;1.60;;;18.00;90.60;;;;;;4972761;28;20774;-74
2022/06/07 11:20:00;;;;;;;2.25;1.75;;;18.00;90.70;;;;;;4987782;28;20027;-73
2022/06/07 11:22:33;;;;;;;2.58;1.55;;;18.00;90.70;;;;;;4955497;28;20023;-72
2022/06/07 11:25:19;;;;;;;2.55;1.70;;;18.00;90.80;;;;;;4972515;28;20054;-73
2022/06/07 11:27:55;;;;;;;2.85;1.80;;;18.00;90.80;;;;;;4972712;28;20572;-72
2022/06/07 11:30:37;;;;;;;3.72;1.83;;;18.00;90.80;;;;;;4955314;28;20028;-75
2022/06/07 11:33:23;;;;;;;3.03;1.73;;;18.00;90.90;;;;;;4954892;28;20162;-73
2022/06/07 11:35:54;;;;;;;3.03;2.10;;;18.00;90.90;;;;;;4972616;28;20532;-73
2022/06/07 11:38:25;;;;;;;3.45;1.85;;;17.90;90.90;;;;;;4972683;28;20110;-72
2022/06/07 11:41:36;;;;;;;3.15;1.77;;;17.90;91.00;;;;;;4955372;28;20034;-72
2022/06/07 11:43:56;;;;;;;2.78;1.80;;;17.90;91.00;;;;;;4971860;28;20037;-76
2022/06/07 11:47:05;;;;;;;3.13;1.90;;;17.90;91.00;;;;;;4973714;28;20035;-76
2022/06/07 11:49:40;;;;;;;3.42;1.90;;;17.90;91.10;;;;;;4947524;28;20055;-77
2022/06/07 11:52:11;;;;;;;3.42;1.67;;;17.90;91.10;;;;;;4976608;28;20057;-77
2022/06/07 11:54:48;;;;;;;3.33;1.73;;;17.90;91.00;;;;;;4958859;28;20034;-72
2022/06/07 11:57:32;;;;;;;2.33;1.67;;;17.90;91.20;;;;;;4977059;28;20110;-77
2022/06/07 12:00:16;;;;;;;3.30;2.00;;;17.90;90.90;;;;;;4959482;28;20506;-77
2022/06/07 12:03:03;;;;;;;3.22;2.05;;;18.00;90.80;;;;;;4976707;28;20072;-73
2022/06/07 12:05:30;;;;;;;3.05;1.80;;;18.00;90.80;;;;;;4976000;28;20517;-72
2022/06/07 12:07:59;;;;;;;2.40;1.80;;;18.00;90.70;;;;;;4976100;28;20049;-73
2022/06/07 12:10:40;;;;;;;3.05;1.70;;;18.00;90.70;;;;;;4975891;28;20484;-72
2022/06/07 12:13:12;;;;;;;2.28;1.58;;;18.00;90.70;;;;;;4960458;28;20026;-76
2022/06/07 12:15:46;;;;;;;3.10;2.00;;;18.00;90.80;;;;;;4976380;28;20027;-76
2022/06/07 12:18:21;;;;;;;2.40;1.70;;;18.00;90.80;;;;;;4991386;28;20033;-75
2022/06/07 12:21:07;;;;;;;2.42;1.55;;;18.00;90.80;;;;;;4958908;28;20557;-75
2022/06/07 12:23:41;;;;;;;2.90;1.77;;;17.90;90.80;;;;;;4990897;28;20071;-75
2022/06/07 12:26:20;;;;;;;3.03;1.80;;;17.90;90.90;;;;;;4976017;28;20026;-75
2022/06/07 12:28:55;;;;;;;2.78;1.75;;;17.90;90.90;;;;;;4958714;28;20488;-78
2022/06/07 12:31:29;;;;;;;2.65;1.80;;;17.90;91.00;;;;;;4974059;28;20511;-76
2022/06/07 12:34:15;;;;;;;2.50;1.67;;;17.90;91.00;;;;;;4942573;28;20025;-74
2022/06/07 12:36:42;;;;;;;3.17;1.90;;;17.90;91.10;;;;;;4958053;28;20038;-75
2022/06/07 12:39:15;;;;;;;2.85;1.88;;;17.90;91.10;;;;;;4955404;28;20051;-74
2022/06/07 12:41:54;;;;;;;3.00;1.85;;;17.90;91.10;;;;;;4939247;29;20027;-76
2022/06/07 12:44:32;;;;;;;3.10;1.85;;;17.90;91.20;;;;;;4963689;28;20504;-75
2022/06/07 12:46:59;;;;;;;3.17;1.90;;;17.80;91.20;;;;;;4975311;28;20034;-74
2022/06/07 12:49:32;;;;;;;3.38;1.80;;;17.80;91.20;;;;;;4972168;28;20034;-75
2022/06/07 12:52:06;;;;;;;3.40;2.00;;;17.80;91.20;;;;;;4960288;28;20031;-74
2022/06/07 12:54:33;;;;;;;5.75;2.30;;;17.90;91.20;;;;;;4951424;28;20039;-74
2022/06/07 12:57:01;;;;;;;3.42;1.85;;;17.90;91.10;;;;;;4969800;28;20027;-75
2022/06/07 12:59:50;;;;;;;5.53;2.00;;;17.90;91.00;;;;;;4969373;28;20066;-75
2022/06/07 13:02:23;;;;;;;5.13;1.88;;;17.90;90.90;;;;;;4957035;28;20023;-76
2022/06/07 13:05:04;;;;;;;4.13;1.85;;;18.00;90.80;;;;;;4957345;28;20671;-75
2022/06/07 13:07:41;;;;;;;3.95;2.15;;;18.00;90.70;;;;;;4970912;28;20031;-75
2022/06/07 13:10:10;;;;;;;4.55;2.15;;;18.00;90.60;;;;;;4975242;28;20109;-79
2022/06/07 13:12:42;;;;;;;3.55;2.00;;;18.00;90.60;;;;;;4973686;28;20050;-75
2022/06/07 13:15:26;;;;;;;4.30;2.03;;;18.00;90.60;;;;;;4980125;28;20034;-73
2022/06/07 13:17:56;;;;;;;4.75;2.22;;;18.00;90.60;;;;;;4980647;28;20094;-73
2022/06/07 13:20:32;;;;;;;4.30;1.92;;;18.00;90.60;;;;;;4969919;28;20566;-72
2022/06/07 13:22:58;;;;;;;3.60;2.00;;;18.00;90.60;;;;;;4970554;28;20047;-72
2022/06/07 13:25:29;;;;;;;3.30;1.95;;;18.00;90.70;;;;;;4956328;28;20051;-73
2022/06/07 13:28:06;;;;;;;4.68;2.10;;;18.00;90.70;;;;;;4936940;28;20067;-74
2022/06/07 13:30:36;;;;;;;5.13;2.20;;;18.00;90.80;;;;;;4961649;28;20030;-73
2022/06/07 13:33:16;;;;;;;3.95;2.25;;;18.00;90.80;;;;;;4973284;28;20023;-74